createdAt,value
2016-11-14T00:00:20.645Z,-3.73
2016-11-14T00:01:34.335Z,-3.79
2016-11-14T00:02:48.247Z,-3.69
2016-11-14T00:03:59.382Z,-3.72
2016-11-14T00:05:11.817Z,-3.82
2016-11-14T00:06:25.525Z,-3.79
2016-11-14T00:07:39.241Z,-3.84
2016-11-14T00:08:51.780Z,-3.87
2016-11-14T00:10:05.486Z,-3.79
2016-11-14T00:11:17.901Z,-3.85
2016-11-14T00:12:31.611Z,-3.79
2016-11-14T00:13:44.093Z,-3.84
2016-11-14T00:14:57.789Z,-3.82
2016-11-14T00:16:11.572Z,-3.84
2016-11-14T00:17:25.261Z,-3.84
2016-11-14T00:18:37.864Z,-3.84
2016-11-14T00:19:51.557Z,-3.85
2016-11-14T00:21:03.970Z,-3.79
2016-11-14T00:22:17.708Z,-3.84
2016-11-14T00:23:30.348Z,-3.85
2016-11-14T00:24:44.060Z,-3.87
2016-11-14T00:25:57.767Z,-3.81
2016-11-14T00:27:11.493Z,-3.88
2016-11-14T00:28:25.192Z,-3.87
2016-11-14T00:29:39.020Z,-3.72
2016-11-14T00:30:51.436Z,-3.84
2016-11-14T00:32:05.164Z,-3.72
2016-11-14T00:33:17.701Z,-3.74
2016-11-14T00:34:31.435Z,-3.73
2016-11-14T00:35:43.833Z,-3.66
2016-11-14T00:36:54.960Z,-3.67
2016-11-14T00:38:08.651Z,-3.59
2016-11-14T00:39:21.190Z,-3.64
2016-11-14T00:40:33.600Z,-3.51
2016-11-14T00:41:46.032Z,-3.55
2016-11-14T00:42:59.811Z,-3.52
2016-11-14T00:44:12.217Z,-3.51
2016-11-14T00:45:23.442Z,-3.49
2016-11-14T00:46:37.185Z,-3.51
2016-11-14T00:47:50.906Z,-3.51
2016-11-14T00:49:03.310Z,-3.58
2016-11-14T00:50:14.435Z,-3.64
2016-11-14T00:51:28.264Z,-3.55
2016-11-14T00:52:40.659Z,-3.58
2016-11-14T00:53:54.377Z,-3.64
2016-11-14T00:55:08.115Z,-3.7
2016-11-14T00:56:21.814Z,-3.7
2016-11-14T00:57:34.233Z,-3.64
2016-11-14T00:58:47.934Z,-3.64
2016-11-14T01:00:01.677Z,-3.73
2016-11-14T01:01:14.107Z,-3.73
2016-11-14T01:02:27.811Z,-3.85
2016-11-14T01:03:41.644Z,-3.84
2016-11-14T01:04:55.335Z,-3.9
2016-11-14T01:06:09.046Z,-3.85
2016-11-14T01:07:22.766Z,-3.87
2016-11-14T01:08:35.165Z,-3.91
2016-11-14T01:09:47.802Z,-3.95
2016-11-14T01:11:00.208Z,-3.92
2016-11-14T01:12:13.888Z,-3.92
2016-11-14T01:13:27.695Z,-3.92
2016-11-14T01:14:41.376Z,-3.91
2016-11-14T01:15:55.091Z,-3.94
2016-11-14T01:17:07.483Z,-4.06
2016-11-14T01:18:19.894Z,-3.92
2016-11-14T01:19:33.608Z,-3.92
2016-11-14T01:20:46.048Z,-3.98
2016-11-14T01:21:59.749Z,-3.94
2016-11-14T01:23:13.439Z,-3.95
2016-11-14T01:24:24.547Z,-3.84
2016-11-14T01:25:36.935Z,-3.94
2016-11-14T01:27:19.031Z,-3.85
2016-11-14T01:28:32.820Z,-3.84
2016-11-14T01:29:46.560Z,-3.85
2016-11-14T01:30:58.956Z,-3.84
2016-11-14T01:32:12.650Z,-3.95
2016-11-14T01:33:57.403Z,-3.85
2016-11-14T01:35:09.805Z,-3.91
2016-11-14T01:36:23.538Z,-4
2016-11-14T01:37:35.944Z,-3.98
2016-11-14T01:38:49.634Z,-4.06
2016-11-14T01:40:02.037Z,-4.05
2016-11-14T01:41:14.452Z,-4
2016-11-14T01:42:27.269Z,-4.05
2016-11-14T01:43:39.694Z,-4.02
2016-11-14T01:44:53.431Z,-4.05
2016-11-14T01:46:07.159Z,-4.03
2016-11-14T01:47:20.844Z,-4.09
2016-11-14T01:48:34.770Z,-4.11
2016-11-14T01:49:48.453Z,-4.03
2016-11-14T01:51:00.887Z,-4.03
2016-11-14T01:52:14.573Z,-4.13
2016-11-14T01:53:28.270Z,-4.1
2016-11-14T01:54:42.182Z,-4.09
2016-11-14T01:55:55.870Z,-4.06
2016-11-14T01:57:09.574Z,-4.16
2016-11-14T01:58:23.272Z,-4.09
2016-11-14T01:59:36.991Z,-4.09
2016-11-14T02:00:50.690Z,-4.13
2016-11-14T02:02:03.095Z,-4.19
2016-11-14T02:03:17.020Z,-4.21
2016-11-14T02:04:29.451Z,-4.19
2016-11-14T02:05:43.155Z,-4.24
2016-11-14T02:06:55.593Z,-4.16
2016-11-14T02:08:09.283Z,-4.27
2016-11-14T02:09:21.696Z,-4.31
2016-11-14T02:10:35.378Z,-4.31
2016-11-14T02:11:49.067Z,-4.29
2016-11-14T02:13:01.476Z,-4.29
2016-11-14T02:14:15.173Z,-4.28
2016-11-14T02:15:28.864Z,-4.28
2016-11-14T02:16:42.574Z,-4.28
2016-11-14T02:17:55.011Z,-4.21
2016-11-14T02:19:08.693Z,-4.28
2016-11-14T02:20:22.369Z,-4.17
2016-11-14T02:21:36.366Z,-4.17
2016-11-14T02:22:50.041Z,-4.28
2016-11-14T02:24:03.750Z,-4.14
2016-11-14T02:25:16.203Z,-4.27
2016-11-14T02:26:29.913Z,-4.29
2016-11-14T02:27:42.388Z,-4.34
2016-11-14T02:28:56.082Z,-4.28
2016-11-14T02:30:09.771Z,-4.37
2016-11-14T02:31:23.461Z,-4.39
2016-11-14T02:32:37.185Z,-4.4
2016-11-14T02:33:50.870Z,-4.42
2016-11-14T02:35:03.269Z,-4.47
2016-11-14T02:36:17.279Z,-4.42
2016-11-14T02:37:30.994Z,-4.43
2016-11-14T02:38:44.679Z,-4.43
2016-11-14T02:39:57.105Z,-4.46
2016-11-14T02:41:09.784Z,-4.53
2016-11-14T02:42:23.470Z,-4.57
2016-11-14T02:43:35.874Z,-4.55
2016-11-14T02:44:49.566Z,-4.58
2016-11-14T02:46:01.997Z,-4.5
2016-11-14T02:47:14.430Z,-4.43
2016-11-14T02:48:28.184Z,-4.45
2016-11-14T02:49:41.889Z,-4.49
2016-11-14T02:50:54.290Z,-4.49
2016-11-14T02:52:38.909Z,-4.53
2016-11-14T02:53:52.599Z,-4.61
2016-11-14T02:55:04.993Z,-4.6
2016-11-14T02:56:17.387Z,-4.53
2016-11-14T02:57:29.774Z,-4.6
2016-11-14T02:58:43.482Z,-4.58
2016-11-14T02:59:55.888Z,-4.67
2016-11-14T03:01:09.794Z,-4.63
2016-11-14T03:02:22.190Z,-4.61
2016-11-14T03:03:35.962Z,-4.6
2016-11-14T03:04:49.758Z,-4.58
2016-11-14T03:06:02.160Z,-4.61
2016-11-14T03:07:15.849Z,-4.67
2016-11-14T03:08:29.553Z,-4.67
2016-11-14T03:09:41.953Z,-4.7
2016-11-14T03:10:55.656Z,-4.73
2016-11-14T03:12:08.052Z,-4.74
2016-11-14T03:13:20.452Z,-4.73
2016-11-14T03:14:34.127Z,-4.74
2016-11-14T03:15:47.805Z,-4.71
2016-11-14T03:17:00.203Z,-4.74
2016-11-14T03:18:12.751Z,-4.76
2016-11-14T03:19:26.425Z,-4.78
2016-11-14T03:20:38.911Z,-4.67
2016-11-14T03:21:51.319Z,-4.76
2016-11-14T03:23:05.278Z,-4.79
2016-11-14T03:24:17.701Z,-4.74
2016-11-14T03:25:30.172Z,-4.81
2016-11-14T03:26:42.585Z,-4.79
2016-11-14T03:27:54.977Z,-4.76
2016-11-14T03:29:07.372Z,-4.78
2016-11-14T03:30:21.059Z,-4.78
2016-11-14T03:31:34.732Z,-4.84
2016-11-14T03:32:48.478Z,-4.81
2016-11-14T03:34:00.874Z,-4.78
2016-11-14T03:35:13.284Z,-4.74
2016-11-14T03:36:25.697Z,-4.84
2016-11-14T03:37:36.795Z,-4.88
2016-11-14T03:38:49.188Z,-4.86
2016-11-14T03:40:02.876Z,-4.91
2016-11-14T03:41:15.278Z,-4.84
2016-11-14T03:42:29.201Z,-4.89
2016-11-14T03:43:40.386Z,-4.89
2016-11-14T03:44:52.794Z,-4.84
2016-11-14T03:46:03.909Z,-4.84
2016-11-14T03:47:17.604Z,-4.82
2016-11-14T03:48:31.305Z,-4.94
2016-11-14T03:49:45.216Z,-4.86
2016-11-14T03:50:59.201Z,-4.99
2016-11-14T03:52:12.891Z,-4.96
2016-11-14T03:53:26.574Z,-4.97
2016-11-14T03:54:38.983Z,-5
2016-11-14T03:55:51.392Z,-4.94
2016-11-14T03:57:05.088Z,-5.03
2016-11-14T03:58:18.822Z,-4.97
2016-11-14T03:59:32.507Z,-5.12
2016-11-14T04:00:46.224Z,-4.96
2016-11-14T04:01:57.327Z,-5.07
2016-11-14T04:03:09.727Z,-5.06
2016-11-14T04:04:23.447Z,-5.14
2016-11-14T04:05:37.157Z,-5.04
2016-11-14T04:06:50.839Z,-5.06
2016-11-14T04:08:04.552Z,-5.1
2016-11-14T04:09:18.249Z,-5.14
2016-11-14T04:10:30.681Z,-5.14
2016-11-14T04:11:44.369Z,-5.18
2016-11-14T04:12:58.114Z,-5.17
2016-11-14T04:14:11.829Z,-5.2
2016-11-14T04:15:25.529Z,-5.2
2016-11-14T04:16:39.234Z,-5.21
2016-11-14T04:17:52.958Z,-5.2
2016-11-14T04:19:06.632Z,-5.28
2016-11-14T04:20:20.313Z,-5.24
2016-11-14T04:21:34.023Z,-5.28
2016-11-14T04:22:46.526Z,-5.28
2016-11-14T04:23:58.939Z,-5.24
2016-11-14T04:25:12.661Z,-5.25
2016-11-14T04:26:25.060Z,-5.22
2016-11-14T04:27:38.805Z,-5.22
2016-11-14T04:28:52.499Z,-5.2
2016-11-14T04:30:06.187Z,-5.32
2016-11-14T04:31:17.311Z,-5.25
2016-11-14T04:32:31.007Z,-5.28
2016-11-14T04:33:44.791Z,-5.21
2016-11-14T04:34:57.190Z,-5.24
2016-11-14T04:36:10.908Z,-5.24
2016-11-14T04:37:24.601Z,-5.18
2016-11-14T04:38:37.008Z,-5.24
2016-11-14T04:39:50.743Z,-5.24
2016-11-14T04:41:04.469Z,-5.28
2016-11-14T04:42:16.858Z,-5.25
2016-11-14T04:43:29.256Z,-5.28
2016-11-14T04:44:40.412Z,-5.22
2016-11-14T04:45:54.101Z,-5.21
2016-11-14T04:47:07.785Z,-5.18
2016-11-14T04:48:21.688Z,-5.22
2016-11-14T04:49:32.806Z,-5.27
2016-11-14T04:50:45.228Z,-5.33
2016-11-14T04:51:57.635Z,-5.22
2016-11-14T04:53:08.758Z,-5.27
2016-11-14T04:54:22.450Z,-5.24
2016-11-14T04:55:34.874Z,-5.25
2016-11-14T04:56:47.296Z,-5.24
2016-11-14T04:58:00.972Z,-5.21
2016-11-14T04:59:14.667Z,-5.18
2016-11-14T05:00:28.360Z,-5.17
2016-11-14T05:01:42.051Z,-5.18
2016-11-14T05:02:51.882Z,-5.12
2016-11-14T05:04:05.562Z,-5.06
2016-11-14T05:05:19.272Z,-5.18
2016-11-14T05:06:31.688Z,-5.14
2016-11-14T05:07:45.387Z,-5.17
2016-11-14T05:08:57.808Z,-5.17
2016-11-14T05:10:11.512Z,-5.14
2016-11-14T05:11:23.946Z,-5.2
2016-11-14T05:12:37.637Z,-5.18
2016-11-14T05:13:51.312Z,-5.21
2016-11-14T05:15:05.053Z,-5.24
2016-11-14T05:16:18.726Z,-5.25
2016-11-14T05:17:32.446Z,-5.25
2016-11-14T05:18:44.949Z,-5.3
2016-11-14T05:19:58.860Z,-5.28
2016-11-14T05:21:11.279Z,-5.25
2016-11-14T05:22:25.008Z,-5.3
2016-11-14T05:23:38.723Z,-5.32
2016-11-14T05:24:52.566Z,-5.28
2016-11-14T05:26:04.963Z,-5.21
2016-11-14T05:27:18.643Z,-5.33
2016-11-14T05:28:32.335Z,-5.3
2016-11-14T05:29:46.077Z,-5.33
2016-11-14T05:30:59.766Z,-5.33
2016-11-14T05:32:13.472Z,-5.33
2016-11-14T05:33:27.155Z,-5.18
2016-11-14T05:34:40.858Z,-5.32
2016-11-14T05:35:53.496Z,-5.32
2016-11-14T05:37:07.183Z,-5.33
2016-11-14T05:38:20.875Z,-5.36
2016-11-14T05:39:34.611Z,-5.3
2016-11-14T05:40:45.799Z,-5.28
2016-11-14T05:41:59.479Z,-5.3
2016-11-14T05:43:13.169Z,-5.3
2016-11-14T05:44:25.571Z,-5.32
2016-11-14T05:45:39.444Z,-5.21
2016-11-14T05:46:51.847Z,-5.33
2016-11-14T05:48:05.539Z,-5.24
2016-11-14T05:49:19.452Z,-5.28
2016-11-14T05:50:33.187Z,-5.3
2016-11-14T05:51:46.886Z,-5.35
2016-11-14T05:53:00.575Z,-5.33
2016-11-14T05:54:14.265Z,-5.32
2016-11-14T05:55:27.956Z,-5.35
2016-11-14T05:56:40.358Z,-5.45
2016-11-14T05:57:54.086Z,-5.36
2016-11-14T05:59:07.853Z,-5.28
2016-11-14T06:00:18.983Z,-5.33
2016-11-14T06:02:03.542Z,-5.38
2016-11-14T06:03:17.249Z,-5.27
2016-11-14T06:04:29.677Z,-5.27
2016-11-14T06:05:42.111Z,-5.48
2016-11-14T06:06:54.702Z,-5.41
2016-11-14T06:08:05.828Z,-5.33
2016-11-14T06:09:19.514Z,-5.22
2016-11-14T06:10:30.630Z,-5.21
2016-11-14T06:11:43.064Z,-5.3
2016-11-14T06:12:55.492Z,-5.3
2016-11-14T06:14:09.410Z,-5.28
2016-11-14T06:15:23.106Z,-5.25
2016-11-14T06:16:36.812Z,-5.27
2016-11-14T06:17:50.524Z,-5.24
2016-11-14T06:19:02.941Z,-5.28
2016-11-14T06:20:16.695Z,-5.27
2016-11-14T06:21:30.390Z,-5.28
2016-11-14T06:22:44.074Z,-5.27
2016-11-14T06:23:57.763Z,-5.28
2016-11-14T06:25:11.453Z,-5.27
2016-11-14T06:26:25.160Z,-5.18
2016-11-14T06:27:39.077Z,-5.27
2016-11-14T06:28:52.895Z,-5.24
2016-11-14T06:30:06.573Z,-5.27
2016-11-14T06:31:20.306Z,-5.32
2016-11-14T06:32:33.995Z,-5.27
2016-11-14T06:33:46.408Z,-5.2
2016-11-14T06:35:00.104Z,-5.17
2016-11-14T06:36:13.775Z,-5.06
2016-11-14T06:37:27.507Z,-5.09
2016-11-14T06:39:10.770Z,-5.06
2016-11-14T06:40:24.498Z,-5.07
2016-11-14T06:41:38.445Z,-5.06
2016-11-14T06:42:51.150Z,-5
2016-11-14T06:44:00.989Z,-5
2016-11-14T06:45:13.411Z,-4.85
2016-11-14T06:46:27.157Z,-4.88
2016-11-14T06:47:40.851Z,-4.92
2016-11-14T06:48:54.532Z,-4.88
2016-11-14T06:50:08.246Z,-4.84
2016-11-14T06:51:20.890Z,-4.82
2016-11-14T06:52:34.605Z,-4.74
2016-11-14T06:53:48.286Z,-4.82
2016-11-14T06:55:01.970Z,-4.71
2016-11-14T06:56:15.674Z,-4.76
2016-11-14T06:57:29.395Z,-4.81
2016-11-14T06:58:41.826Z,-4.66
2016-11-14T06:59:55.657Z,-4.63
2016-11-14T07:01:06.887Z,-4.61
2016-11-14T07:02:19.273Z,-4.6
2016-11-14T07:03:32.955Z,-4.61
2016-11-14T07:04:44.075Z,-4.68
2016-11-14T07:05:56.482Z,-4.66
2016-11-14T07:07:07.864Z,-4.61
2016-11-14T07:08:20.261Z,-4.61
2016-11-14T07:09:33.945Z,-4.68
2016-11-14T07:10:45.058Z,-4.58
2016-11-14T07:11:58.766Z,-4.5
2016-11-14T07:13:12.452Z,-4.42
2016-11-14T07:14:26.153Z,-4.34
2016-11-14T07:15:38.726Z,-4.31
2016-11-14T07:16:51.130Z,-4.39
2016-11-14T07:18:04.873Z,-4.32
2016-11-14T07:19:17.267Z,-4.24
2016-11-14T07:20:30.971Z,-4.37
2016-11-14T07:21:44.693Z,-4.39
2016-11-14T07:22:58.398Z,-4.29
2016-11-14T07:24:12.141Z,-4.31
2016-11-14T07:25:24.571Z,-4.32
2016-11-14T07:26:36.957Z,-4.17
2016-11-14T07:27:49.352Z,-4.11
2016-11-14T07:29:03.054Z,-4.09
2016-11-14T07:30:16.735Z,-4.05
2016-11-14T07:31:29.161Z,-3.92
2016-11-14T07:32:41.566Z,-3.94
2016-11-14T07:33:55.328Z,-3.92
2016-11-14T07:35:09.020Z,-3.9
2016-11-14T07:36:21.452Z,-3.87
2016-11-14T07:37:34.078Z,-3.72
2016-11-14T07:38:46.543Z,-3.73
2016-11-14T07:40:00.261Z,-3.49
2016-11-14T07:41:12.899Z,-3.3
2016-11-14T07:42:26.611Z,-2.62
2016-11-14T07:43:40.318Z,-1.7
2016-11-14T07:44:54.006Z,-0.48
2016-11-14T07:46:07.695Z,0.97
2016-11-14T07:47:20.380Z,2.31
2016-11-14T07:48:35.623Z,3.58
2016-11-14T07:49:50.849Z,4.49
2016-11-14T07:51:06.057Z,5.38
2016-11-14T07:52:21.289Z,6.3
2016-11-14T07:53:36.577Z,7.06
2016-11-14T07:54:50.508Z,7.79
2016-11-14T07:56:04.597Z,8.37
2016-11-14T07:57:18.609Z,8.77
2016-11-14T07:58:32.464Z,9.11
2016-11-14T07:59:47.675Z,8.67
2016-11-14T08:01:01.374Z,7.67
2016-11-14T08:02:13.810Z,7.14
2016-11-14T08:03:27.512Z,7.62
2016-11-14T08:04:42.778Z,8.45
2016-11-14T08:05:58.038Z,8.98
2016-11-14T08:07:13.313Z,9.53
2016-11-14T08:08:27.271Z,9.59
2016-11-14T08:09:41.333Z,9.98
2016-11-14T08:10:55.266Z,10.15
2016-11-14T08:12:10.796Z,10.27
2016-11-14T08:13:26.035Z,10.63
2016-11-14T08:14:38.700Z,10.98
2016-11-14T08:15:54.177Z,11.72
2016-11-14T08:17:09.407Z,12.35
2016-11-14T08:18:22.011Z,12.84
2016-11-14T08:19:37.509Z,12.97
2016-11-14T08:20:51.518Z,13.45
2016-11-14T08:22:06.742Z,13.56
2016-11-14T08:23:20.750Z,13.96
2016-11-14T08:24:35.996Z,14.24
2016-11-14T08:25:48.767Z,14.72
2016-11-14T08:27:04.024Z,15.08
2016-11-14T08:28:17.928Z,15.29
2016-11-14T08:29:31.974Z,15.35
2016-11-14T08:30:46.291Z,15.24
2016-11-14T08:32:01.577Z,15.55
2016-11-14T08:33:16.828Z,15.7
2016-11-14T08:34:32.070Z,15.87
2016-11-14T08:35:47.297Z,16.07
2016-11-14T08:37:02.538Z,16.44
2016-11-14T08:38:18.013Z,16.39
2016-11-14T08:39:33.255Z,16.51
2016-11-14T08:40:48.491Z,16.64
2016-11-14T08:42:02.530Z,16.76
2016-11-14T08:43:17.783Z,16.59
2016-11-14T08:44:33.063Z,16.59
2016-11-14T08:45:48.277Z,16.87
2016-11-14T08:47:03.521Z,17.08
2016-11-14T08:48:18.758Z,17.11
2016-11-14T08:49:34.027Z,17.08
2016-11-14T08:50:49.274Z,17.17
2016-11-14T08:52:04.526Z,17.46
2016-11-14T08:53:18.505Z,17.54
2016-11-14T08:54:33.876Z,17.46
2016-11-14T08:55:49.193Z,17.58
2016-11-14T08:57:04.430Z,17.47
2016-11-14T08:58:19.767Z,17.49
2016-11-14T08:59:35.011Z,17.72
2016-11-14T09:00:50.278Z,17.89
2016-11-14T09:02:05.563Z,17.64
2016-11-14T09:03:19.523Z,17.61
2016-11-14T09:04:33.720Z,17.54
2016-11-14T09:05:47.684Z,17.76
2016-11-14T09:07:02.957Z,18.04
2016-11-14T09:08:14.379Z,18.41
2016-11-14T09:09:29.624Z,18.8
2016-11-14T09:10:44.964Z,19.1
2016-11-14T09:11:58.875Z,19.3
2016-11-14T09:13:14.138Z,19.34
2016-11-14T09:14:28.130Z,19.85
2016-11-14T09:15:43.389Z,19.86
2016-11-14T09:16:58.708Z,19.86
2016-11-14T09:18:13.953Z,20.14
2016-11-14T09:19:27.911Z,20.27
2016-11-14T09:20:41.877Z,20.54
2016-11-14T09:21:57.119Z,20.97
2016-11-14T09:23:11.075Z,21.27
2016-11-14T09:24:24.937Z,21.33
2016-11-14T09:25:37.630Z,21.35
2016-11-14T09:26:51.608Z,21.57
2016-11-14T09:28:05.609Z,21.84
2016-11-14T09:29:19.586Z,22.02
2016-11-14T09:30:33.628Z,22.03
2016-11-14T09:31:48.888Z,22.09
2016-11-14T09:33:02.877Z,22.31
2016-11-14T09:34:18.577Z,22.55
2016-11-14T09:35:32.604Z,22.87
2016-11-14T09:36:47.883Z,22.67
2016-11-14T09:38:01.823Z,21.6
2016-11-14T09:39:17.068Z,20.31
2016-11-14T09:40:32.416Z,20.11
2016-11-14T09:41:47.669Z,20.41
2016-11-14T09:43:02.923Z,20.39
2016-11-14T09:44:18.172Z,20.57
2016-11-14T09:45:33.592Z,20.48
2016-11-14T09:46:47.571Z,20.46
2016-11-14T09:48:02.854Z,21.22
2016-11-14T09:49:16.830Z,22.31
2016-11-14T09:50:32.143Z,23.36
2016-11-14T09:51:46.115Z,24.01
2016-11-14T09:53:00.164Z,23.98
2016-11-14T09:54:15.452Z,24.51
2016-11-14T09:55:30.735Z,24.91
2016-11-14T09:56:45.993Z,25.36
2016-11-14T09:58:01.261Z,25.9
2016-11-14T09:59:16.508Z,26
2016-11-14T10:00:30.603Z,26.34
2016-11-14T10:01:44.595Z,25.87
2016-11-14T10:02:59.838Z,24.76
2016-11-14T10:04:15.098Z,23.76
2016-11-14T10:05:30.364Z,23.76
2016-11-14T10:06:45.587Z,24.5
2016-11-14T10:07:58.300Z,24.75
2016-11-14T10:09:12.257Z,23.4
2016-11-14T10:10:27.735Z,22.31
2016-11-14T10:11:41.726Z,21.58
2016-11-14T10:12:55.667Z,21.13
2016-11-14T10:14:09.545Z,21.38
2016-11-14T10:15:24.825Z,22.26
2016-11-14T10:16:39.070Z,22.26
2016-11-14T10:17:54.351Z,22.55
2016-11-14T10:19:08.338Z,23.58
2016-11-14T10:20:23.608Z,24.45
2016-11-14T10:21:37.597Z,24.31
2016-11-14T10:22:52.933Z,23.18
2016-11-14T10:24:07.086Z,22.75
2016-11-14T10:25:22.348Z,23.03
2016-11-14T10:26:37.632Z,22.55
2016-11-14T10:27:52.876Z,21.75
2016-11-14T10:29:05.635Z,21.79
2016-11-14T10:30:21.120Z,21.6
2016-11-14T10:31:36.368Z,21.64
2016-11-14T10:32:50.332Z,22.13
2016-11-14T10:34:04.348Z,22.18
2016-11-14T10:35:19.598Z,22.26
2016-11-14T10:36:32.236Z,22.55
2016-11-14T10:37:46.249Z,23.27
2016-11-14T10:39:01.487Z,23.54
2016-11-14T10:40:15.459Z,23.08
2016-11-14T10:41:30.731Z,22.33
2016-11-14T10:42:46.033Z,22.63
2016-11-14T10:44:01.277Z,22.45
2016-11-14T10:45:16.621Z,22.63
2016-11-14T10:46:30.601Z,23.31
2016-11-14T10:47:46.153Z,23.65
2016-11-14T10:49:01.619Z,23.88
2016-11-14T10:50:14.339Z,24.27
2016-11-14T10:51:29.569Z,23.5
2016-11-14T10:52:44.815Z,23.38
2016-11-14T10:54:00.080Z,24.09
2016-11-14T10:55:15.392Z,24.06
2016-11-14T10:56:30.630Z,22.82
2016-11-14T10:57:43.284Z,21.84
2016-11-14T10:58:57.210Z,21.33
2016-11-14T11:00:09.855Z,21.31
2016-11-14T11:01:25.282Z,22.15
2016-11-14T11:02:39.247Z,23.05
2016-11-14T11:03:53.305Z,23.01
2016-11-14T11:05:08.576Z,23.05
2016-11-14T11:06:23.845Z,22.65
2016-11-14T11:07:39.141Z,21.72
2016-11-14T11:08:54.516Z,20.71
2016-11-14T11:10:08.505Z,19.88
2016-11-14T11:11:23.763Z,19.31
2016-11-14T11:12:39.267Z,18.88
2016-11-14T11:13:54.544Z,18.52
2016-11-14T11:15:09.921Z,18.28
2016-11-14T11:16:25.165Z,18.26
2016-11-14T11:17:40.428Z,18.9
2016-11-14T11:18:53.112Z,19.31
2016-11-14T11:20:37.859Z,19.95
2016-11-14T11:21:51.804Z,19.8
2016-11-14T11:23:07.183Z,19.82
2016-11-14T11:24:22.489Z,20.12
2016-11-14T11:25:36.365Z,20.56
2016-11-14T11:26:51.723Z,21.08
2016-11-14T11:28:06.989Z,21.1
2016-11-14T11:29:22.263Z,20.03
2016-11-14T11:30:36.244Z,18.98
2016-11-14T11:31:51.494Z,18.04
2016-11-14T11:33:05.477Z,17.61
2016-11-14T11:34:20.734Z,17.92
2016-11-14T11:35:34.814Z,17.75
2016-11-14T11:36:50.069Z,17.04
2016-11-14T11:38:05.322Z,15.64
2016-11-14T11:39:18.149Z,15.96
2016-11-14T11:40:32.134Z,16.9
2016-11-14T11:41:45.066Z,17.4
2016-11-14T11:43:00.317Z,17.55
2016-11-14T11:44:15.558Z,17.97
2016-11-14T11:45:29.474Z,18.86
2016-11-14T11:47:14.384Z,19.88
2016-11-14T11:48:29.642Z,20.66
2016-11-14T11:49:43.691Z,21.09
2016-11-14T11:50:58.976Z,21.57
2016-11-14T11:52:14.229Z,21.38
2016-11-14T11:53:28.118Z,21.3
2016-11-14T11:54:43.403Z,21.78
2016-11-14T11:55:58.660Z,22.23
2016-11-14T11:57:14.131Z,23.02
2016-11-14T11:58:29.383Z,23.43
2016-11-14T11:59:44.612Z,23.2
2016-11-14T12:00:58.556Z,22.89
2016-11-14T12:02:13.869Z,23.14
2016-11-14T12:03:27.878Z,22.34
2016-11-14T12:04:43.117Z,21.98
2016-11-14T12:05:58.406Z,21.33
2016-11-14T12:07:12.387Z,21.56
2016-11-14T12:08:26.423Z,21.66
2016-11-14T12:09:41.710Z,21.6
2016-11-14T12:10:55.680Z,21.9
2016-11-14T12:12:11.188Z,22.27
2016-11-14T12:13:25.159Z,22.39
2016-11-14T12:14:39.042Z,22.76
2016-11-14T12:15:53.013Z,23.06
2016-11-14T12:17:08.480Z,23.18
2016-11-14T12:18:23.737Z,23.43
2016-11-14T12:19:39.020Z,22.45
2016-11-14T12:20:54.301Z,19.61
2016-11-14T12:22:39.097Z,15.95
2016-11-14T12:23:52.812Z,13.56
2016-11-14T12:25:05.351Z,11.38
2016-11-14T12:26:17.779Z,9.98
2016-11-14T12:27:31.496Z,9.19
2016-11-14T12:28:45.248Z,9.22
2016-11-14T12:29:59.192Z,11.17
2016-11-14T12:31:13.115Z,13.23
2016-11-14T12:32:27.064Z,15.38
2016-11-14T12:33:39.894Z,16.31
2016-11-14T12:34:55.407Z,17.08
2016-11-14T12:36:10.661Z,17.45
2016-11-14T12:37:26.163Z,17.73
2016-11-14T12:38:41.408Z,17.86
2016-11-14T12:39:55.616Z,16.98
2016-11-14T12:41:10.877Z,15.84
2016-11-14T12:42:26.181Z,14.29
2016-11-14T12:43:38.914Z,12.24
2016-11-14T12:44:52.664Z,10.72
2016-11-14T12:46:03.788Z,9.8
2016-11-14T12:47:17.501Z,8.75
2016-11-14T12:48:29.940Z,7.9
2016-11-14T12:49:43.678Z,7.21
2016-11-14T12:50:57.561Z,6.53
2016-11-14T12:52:11.307Z,5.96
2016-11-14T12:53:25.007Z,5.5
2016-11-14T12:54:37.417Z,5.18
2016-11-14T12:55:51.478Z,5.17
2016-11-14T12:57:03.986Z,5
2016-11-14T12:58:17.701Z,4.81
2016-11-14T12:59:31.405Z,4.55
2016-11-14T13:00:43.828Z,4.47
2016-11-14T13:01:57.595Z,4.28
2016-11-14T13:03:11.358Z,4.25
2016-11-14T13:04:22.485Z,4.19
2016-11-14T13:05:36.194Z,4.08
2016-11-14T13:06:48.713Z,3.87
2016-11-14T13:08:01.128Z,3.75
2016-11-14T13:09:15.079Z,3.69
2016-11-14T13:10:28.793Z,3.77
2016-11-14T13:11:41.206Z,3.76
2016-11-14T13:12:53.624Z,3.75
2016-11-14T13:14:06.079Z,3.72
2016-11-14T13:15:19.884Z,3.73
2016-11-14T13:16:31.115Z,3.69
2016-11-14T13:17:43.565Z,3.69
2016-11-14T13:18:55.970Z,3.64
2016-11-14T13:20:09.699Z,3.55
2016-11-14T13:21:21.094Z,3.47
2016-11-14T13:22:34.817Z,3.4
2016-11-14T13:23:48.569Z,3.34
2016-11-14T13:25:01.002Z,3.34
2016-11-14T13:26:14.743Z,3.29
2016-11-14T13:27:28.479Z,3.32
2016-11-14T13:28:42.181Z,3.34
2016-11-14T13:29:55.928Z,3.32
2016-11-14T13:31:09.635Z,3.29
2016-11-14T13:32:23.366Z,3.29
2016-11-14T13:33:37.073Z,3.15
2016-11-14T13:34:50.774Z,3.19
2016-11-14T13:36:03.205Z,3.1
2016-11-14T13:37:15.608Z,3.07
2016-11-14T13:38:29.335Z,3.08
2016-11-14T13:39:43.037Z,3.1
2016-11-14T13:40:56.820Z,3.07
2016-11-14T13:42:07.932Z,3.13
2016-11-14T13:43:20.368Z,3.18
2016-11-14T13:44:32.846Z,3.1
2016-11-14T13:45:45.323Z,3.22
2016-11-14T13:46:59.026Z,3.24
2016-11-14T13:48:12.746Z,3.06
2016-11-14T13:49:26.491Z,3.1
2016-11-14T13:51:09.828Z,2.92
2016-11-14T13:52:23.550Z,2.91
2016-11-14T13:53:37.277Z,2.92
2016-11-14T13:54:50.973Z,2.88
2016-11-14T13:56:04.672Z,2.88
2016-11-14T13:57:18.381Z,2.84
2016-11-14T13:58:32.122Z,2.89
2016-11-14T13:59:45.816Z,2.91
2016-11-14T14:00:59.518Z,2.96
2016-11-14T14:02:12.091Z,2.96
2016-11-14T14:03:25.806Z,3.04
2016-11-14T14:04:39.520Z,3.04
2016-11-14T14:05:50.639Z,3
2016-11-14T14:07:04.335Z,2.94
2016-11-14T14:08:16.814Z,2.94
2016-11-14T14:09:30.641Z,2.84
2016-11-14T14:10:44.354Z,2.81
2016-11-14T14:11:58.084Z,2.77
2016-11-14T14:13:11.787Z,2.73
2016-11-14T14:14:25.500Z,2.66
2016-11-14T14:15:37.920Z,2.56
2016-11-14T14:16:51.614Z,2.55
2016-11-14T14:18:05.331Z,2.52
2016-11-14T14:19:19.155Z,2.51
2016-11-14T14:20:32.884Z,2.49
2016-11-14T14:21:46.608Z,2.49
2016-11-14T14:23:00.331Z,2.46
2016-11-14T14:24:12.790Z,2.44
2016-11-14T14:25:26.622Z,2.37
2016-11-14T14:26:39.077Z,2.37
2016-11-14T14:27:51.541Z,2.44
2016-11-14T14:29:05.243Z,2.33
2016-11-14T14:30:18.964Z,2.34
2016-11-14T14:31:32.660Z,2.41
2016-11-14T14:32:46.370Z,2.3
2016-11-14T14:33:58.779Z,2.33
2016-11-14T14:35:12.580Z,2.34
2016-11-14T14:36:26.347Z,2.3
2016-11-14T14:37:38.757Z,2.13
2016-11-14T14:38:52.482Z,2.13
2016-11-14T14:40:06.177Z,2.13
2016-11-14T14:41:19.886Z,2.09
2016-11-14T14:42:32.456Z,2.12
2016-11-14T14:43:44.904Z,2.08
2016-11-14T14:44:57.317Z,2.01
2016-11-14T14:46:09.800Z,2.08
2016-11-14T14:47:23.520Z,1.98
2016-11-14T14:48:34.682Z,1.92
2016-11-14T14:49:47.201Z,1.92
2016-11-14T14:50:59.636Z,1.92
2016-11-14T14:52:13.380Z,1.9
2016-11-14T14:53:25.780Z,1.77
2016-11-14T14:54:38.231Z,1.8
2016-11-14T14:55:51.954Z,1.82
2016-11-14T14:57:04.565Z,1.8
2016-11-14T14:58:18.267Z,1.84
2016-11-14T14:59:31.993Z,1.76
2016-11-14T15:00:44.447Z,1.74
2016-11-14T15:01:58.162Z,1.73
2016-11-14T15:03:11.915Z,1.69
2016-11-14T15:04:25.618Z,1.55
2016-11-14T15:05:38.090Z,1.54
2016-11-14T15:06:50.498Z,1.54
2016-11-14T15:08:04.196Z,1.6
2016-11-14T15:09:17.922Z,1.5
2016-11-14T15:10:31.628Z,1.47
2016-11-14T15:11:44.071Z,1.53
2016-11-14T15:12:56.507Z,1.5
2016-11-14T15:14:09.240Z,1.42
2016-11-14T15:15:20.403Z,1.38
2016-11-14T15:16:34.120Z,1.38
2016-11-14T15:17:47.839Z,1.36
2016-11-14T15:19:00.261Z,1.33
2016-11-14T15:20:12.684Z,1.35
2016-11-14T15:21:26.450Z,1.36
2016-11-14T15:22:40.153Z,1.3
2016-11-14T15:23:53.866Z,1.22
2016-11-14T15:25:06.283Z,1.17
2016-11-14T15:26:18.702Z,1.28
2016-11-14T15:27:31.385Z,1.3
2016-11-14T15:28:45.126Z,1.24
2016-11-14T15:29:58.842Z,1.15
2016-11-14T15:31:11.251Z,1.14
2016-11-14T15:32:25.000Z,1.11
2016-11-14T15:33:38.711Z,1.04
2016-11-14T15:34:49.843Z,1.02
2016-11-14T15:36:03.814Z,1.1
2016-11-14T15:37:16.256Z,0.99
2016-11-14T15:38:30.073Z,0.99
2016-11-14T15:39:42.481Z,0.92
2016-11-14T15:40:54.960Z,0.93
2016-11-14T15:42:08.666Z,0.9
2016-11-14T15:43:21.101Z,0.84
2016-11-14T15:44:34.840Z,0.79
2016-11-14T15:45:47.261Z,0.81
2016-11-14T15:47:00.979Z,0.81
2016-11-14T15:48:14.697Z,0.84
2016-11-14T15:49:27.103Z,0.79
2016-11-14T15:50:39.644Z,0.72
2016-11-14T15:51:53.342Z,0.71
2016-11-14T15:53:07.032Z,0.68
2016-11-14T15:54:19.688Z,0.75
2016-11-14T15:55:33.394Z,0.74
2016-11-14T15:56:47.097Z,0.67
2016-11-14T15:58:00.790Z,0.66
2016-11-14T15:59:14.508Z,0.68
2016-11-14T16:00:28.256Z,0.6
2016-11-14T16:01:40.683Z,0.57
2016-11-14T16:02:53.171Z,0.6